createdAt,value
2019-02-04T00:02:18.169Z,20.40
2019-02-04T00:05:21.880Z,19.67
2019-02-04T00:08:25.513Z,20.57
2019-02-04T00:11:29.208Z,19.13
2019-02-04T00:14:32.846Z,20.53
2019-02-04T00:17:36.549Z,21.60
2019-02-04T00:20:40.272Z,22.87
2019-02-04T00:23:43.971Z,23.43
2019-02-04T00:26:51.551Z,19.43
2019-02-04T00:29:52.950Z,20.90
2019-02-04T00:32:56.643Z,19.47
2019-02-04T00:36:00.306Z,20.43
2019-02-04T00:39:04.690Z,18.17
2019-02-04T00:42:08.355Z,18.90
2019-02-04T00:45:12.080Z,20.50
2019-02-04T00:48:15.811Z,19.77
2019-02-04T00:51:19.475Z,20.80
2019-02-04T00:54:23.140Z,21.73
2019-02-04T00:57:26.857Z,21.83
2019-02-04T01:00:31.433Z,20.00
2019-02-04T01:03:35.090Z,20.80
2019-02-04T01:06:38.795Z,20.10
2019-02-04T01:09:42.852Z,19.13
2019-02-04T01:12:46.531Z,14.53
2019-02-04T01:15:50.245Z,20.97
2019-02-04T01:18:54.296Z,17.00
2019-02-04T01:21:57.970Z,18.77
2019-02-04T01:25:01.657Z,15.03
2019-02-04T01:28:05.945Z,17.93
2019-02-04T01:31:09.626Z,15.60
2019-02-04T01:34:13.343Z,16.33
2019-02-04T01:37:17.077Z,14.93
2019-02-04T01:40:25.636Z,15.13
2019-02-04T01:43:29.314Z,13.80
2019-02-04T01:46:32.964Z,16.30
2019-02-04T01:49:36.655Z,14.10
2019-02-04T01:52:40.309Z,15.40
2019-02-04T01:55:44.048Z,14.83
2019-02-04T01:58:47.685Z,15.00
2019-02-04T02:01:51.390Z,13.77
2019-02-04T02:04:55.022Z,14.10
2019-02-04T02:07:58.708Z,12.90
2019-02-04T02:11:02.381Z,13.80
2019-02-04T02:14:06.061Z,14.03
2019-02-04T02:17:09.763Z,12.27
2019-02-04T02:20:24.466Z,11.93
2019-02-04T02:23:28.187Z,12.57
2019-02-04T02:26:31.821Z,13.23
2019-02-04T02:29:35.546Z,12.60
2019-02-04T02:32:39.217Z,12.27
2019-02-04T02:35:42.895Z,12.23
2019-02-04T02:38:46.572Z,10.83
2019-02-04T02:41:50.289Z,12.03
2019-02-04T02:44:54.027Z,12.07
2019-02-04T02:47:57.689Z,10.77
2019-02-04T02:51:01.413Z,11.67
2019-02-04T02:54:05.067Z,11.50
2019-02-04T02:57:08.757Z,12.17
2019-02-04T03:00:17.572Z,12.00
2019-02-04T03:03:21.271Z,11.23
2019-02-04T03:06:24.950Z,11.23
2019-02-04T03:09:28.665Z,11.33
2019-02-04T03:12:32.384Z,12.03
2019-02-04T03:15:36.053Z,11.63
2019-02-04T03:18:39.749Z,11.60
2019-02-04T03:21:43.386Z,11.80
2019-02-04T03:24:47.401Z,10.77
2019-02-04T03:27:51.057Z,10.77
2019-02-04T03:30:54.752Z,11.53
2019-02-04T03:33:58.884Z,10.73
2019-02-04T03:37:02.576Z,9.30
2019-02-04T03:40:12.210Z,10.47
2019-02-04T03:43:15.917Z,9.90
2019-02-04T03:46:19.581Z,9.27
2019-02-04T03:49:23.248Z,11.03
2019-02-04T03:52:26.963Z,10.37
2019-02-04T03:55:30.639Z,10.87
2019-02-04T03:58:34.326Z,9.97
2019-02-04T04:01:38.026Z,9.37
2019-02-04T04:04:41.686Z,9.50
2019-02-04T04:07:45.376Z,9.40
2019-02-04T04:10:49.046Z,10.00
2019-02-04T04:13:52.771Z,9.33
2019-02-04T04:16:56.468Z,8.83
2019-02-04T04:20:00.468Z,10.90
2019-02-04T04:23:04.234Z,9.47
2019-02-04T04:26:07.912Z,9.60
2019-02-04T04:29:11.626Z,10.47
2019-02-04T04:32:15.256Z,9.27
2019-02-04T04:35:18.977Z,9.97
2019-02-04T04:38:22.698Z,11.87
2019-02-04T04:41:26.371Z,11.67
2019-02-04T04:44:30.052Z,11.17
2019-02-04T04:47:33.740Z,12.80
2019-02-04T04:50:37.425Z,13.50
2019-02-04T04:53:41.091Z,15.27
2019-02-04T04:56:44.809Z,14.00
2019-02-04T04:59:48.849Z,12.73
2019-02-04T05:02:52.557Z,11.37
2019-02-04T05:05:56.280Z,12.80
2019-02-04T05:09:00.239Z,13.03
2019-02-04T05:12:03.973Z,12.30
2019-02-04T05:15:10.527Z,12.90
2019-02-04T05:18:14.543Z,12.77
2019-02-04T05:21:18.164Z,14.47
2019-02-04T05:24:21.865Z,12.40
2019-02-04T05:27:25.611Z,12.67
2019-02-04T05:30:29.303Z,13.00
2019-02-04T05:33:32.986Z,13.83
2019-02-04T05:36:36.637Z,15.13
2019-02-04T05:39:40.360Z,15.87
2019-02-04T05:42:44.015Z,15.63
2019-02-04T05:45:47.717Z,15.80
2019-02-04T05:48:51.472Z,15.37
2019-02-04T05:51:55.268Z,13.80
2019-02-04T05:54:59.001Z,13.03
2019-02-04T05:58:02.694Z,14.23
2019-02-04T06:01:06.497Z,14.27
2019-02-04T06:04:12.618Z,13.73
2019-02-04T06:07:15.544Z,12.53
2019-02-04T06:10:19.239Z,12.87
2019-02-04T06:13:22.955Z,14.70
2019-02-04T06:16:26.645Z,14.13
2019-02-04T06:19:30.343Z,13.90
2019-02-04T06:22:34.067Z,14.57
2019-02-04T06:25:37.726Z,14.53
2019-02-04T06:28:41.433Z,16.17
2019-02-04T06:31:45.081Z,14.60
2019-02-04T06:34:48.929Z,14.43
2019-02-04T06:37:52.594Z,15.17
2019-02-04T06:40:56.296Z,16.07
2019-02-04T06:43:59.989Z,13.87
2019-02-04T06:47:03.618Z,15.10
2019-02-04T06:50:10.641Z,15.83
2019-02-04T06:53:14.806Z,16.63
2019-02-04T06:56:18.505Z,18.03
2019-02-04T06:59:22.189Z,17.27
2019-02-04T07:02:26.412Z,17.47
2019-02-04T07:05:30.091Z,15.77
2019-02-04T07:08:33.754Z,16.13
2019-02-04T07:11:37.873Z,13.93
2019-02-04T07:14:41.635Z,16.00
2019-02-04T07:17:45.331Z,17.30
2019-02-04T07:20:49.364Z,16.20
2019-02-04T07:23:53.065Z,16.73
2019-02-04T07:26:56.765Z,15.93
2019-02-04T07:30:00.894Z,17.10
2019-02-04T07:33:04.591Z,16.83
2019-02-04T07:36:08.248Z,17.80
2019-02-04T07:39:12.337Z,17.43
2019-02-04T07:42:16.476Z,17.50
2019-02-04T07:45:20.184Z,19.07
2019-02-04T07:48:24.286Z,20.30
2019-02-04T07:51:27.962Z,18.20
2019-02-04T07:54:31.670Z,19.90
2019-02-04T07:57:35.745Z,19.17
2019-02-04T08:00:39.427Z,19.50
2019-02-04T08:03:43.132Z,20.33
2019-02-04T08:06:46.894Z,19.93
2019-02-04T08:09:50.659Z,19.40
2019-02-04T08:13:01.427Z,21.47
2019-02-04T08:15:59.646Z,19.70
2019-02-04T08:19:03.377Z,20.53
2019-02-04T08:22:07.070Z,19.37
2019-02-04T08:25:13.274Z,19.47
2019-02-04T08:28:16.957Z,19.33
2019-02-04T08:31:20.642Z,17.27
2019-02-04T08:34:24.356Z,18.07
2019-02-04T08:37:28.027Z,18.53
2019-02-04T08:40:31.753Z,18.30
2019-02-04T08:43:35.493Z,16.87
2019-02-04T08:46:39.172Z,16.60
2019-02-04T08:49:42.871Z,16.90
2019-02-04T08:52:46.519Z,16.17
2019-02-04T08:55:50.205Z,16.87
2019-02-04T08:58:53.940Z,16.63
2019-02-04T09:01:57.696Z,16.33
2019-02-04T09:05:01.408Z,17.33
2019-02-04T09:08:05.053Z,18.03
2019-02-04T09:11:09.343Z,18.90
2019-02-04T09:14:13.085Z,19.03
2019-02-04T09:17:16.718Z,19.30
2019-02-04T09:20:20.815Z,18.73
2019-02-04T09:23:24.478Z,19.40
2019-02-04T09:26:28.138Z,19.10
2019-02-04T09:29:32.395Z,18.73
2019-02-04T09:32:36.104Z,19.23
2019-02-04T09:35:39.836Z,18.77
2019-02-04T09:38:43.676Z,19.07
2019-02-04T09:41:47.360Z,18.60
2019-02-04T09:44:51.020Z,20.23
2019-02-04T09:47:54.763Z,21.30
2019-02-04T09:50:58.533Z,20.60
2019-02-04T09:54:02.207Z,21.57
2019-02-04T09:57:05.880Z,20.73
2019-02-04T10:00:15.365Z,19.47
2019-02-04T10:03:19.105Z,19.03
2019-02-04T10:06:23.936Z,21.13
2019-02-04T10:09:27.617Z,20.93
2019-02-04T10:12:31.286Z,20.17
2019-02-04T10:15:40.590Z,20.27
2019-02-04T10:18:44.226Z,19.43
2019-02-04T10:21:47.928Z,20.03
2019-02-04T10:24:51.643Z,19.97
2019-02-04T10:27:55.292Z,21.27
2019-02-04T10:30:59.004Z,18.87
2019-02-04T10:34:02.857Z,19.37
2019-02-04T10:37:06.638Z,20.70
2019-02-04T10:40:13.425Z,20.73
2019-02-04T10:43:17.118Z,18.47
2019-02-04T10:46:20.898Z,18.33
2019-02-04T10:49:24.641Z,21.50
2019-02-04T10:52:28.431Z,21.67
2019-02-04T10:55:32.129Z,23.33
2019-02-04T10:58:35.896Z,22.33
2019-02-04T11:01:39.665Z,23.03
2019-02-04T11:04:43.401Z,21.83
2019-02-04T11:07:47.145Z,21.20
2019-02-04T11:10:50.885Z,22.47
2019-02-04T11:13:56.341Z,22.73
2019-02-04T11:17:00.050Z,23.60
2019-02-04T11:20:05.674Z,24.20
2019-02-04T11:23:09.729Z,22.17
2019-02-04T11:26:13.638Z,22.03
2019-02-04T11:29:18.867Z,24.93
2019-02-04T11:32:22.833Z,23.20
2019-02-04T11:35:26.584Z,21.13
2019-02-04T11:38:30.228Z,20.80
2019-02-04T11:41:33.887Z,21.40
2019-02-04T11:44:37.605Z,22.00
2019-02-04T11:47:41.208Z,19.33
2019-02-04T11:50:44.919Z,19.73
2019-02-04T11:53:48.594Z,22.03
2019-02-04T11:56:52.323Z,18.70
2019-02-04T11:59:55.972Z,20.03
2019-02-04T12:03:01.691Z,22.10
2019-02-04T12:06:05.407Z,22.90
2019-02-04T12:09:09.210Z,23.33
2019-02-04T12:12:12.928Z,23.83
2019-02-04T12:15:22.072Z,23.47
2019-02-04T12:18:25.806Z,23.73
2019-02-04T12:21:29.469Z,23.40
2019-02-04T12:24:33.213Z,19.83
2019-02-04T12:27:36.919Z,18.03
2019-02-04T12:30:42.194Z,18.07
2019-02-04T12:33:45.886Z,20.20
2019-02-04T12:36:49.569Z,20.87
2019-02-04T12:39:53.252Z,20.37
2019-02-04T12:42:56.901Z,22.17
2019-02-04T12:46:00.575Z,24.53
2019-02-04T12:49:04.226Z,21.97
2019-02-04T12:52:07.933Z,23.50
2019-02-04T12:55:23.590Z,23.93
2019-02-04T12:58:27.433Z,24.67
2019-02-04T13:01:31.131Z,22.67
2019-02-04T13:04:34.801Z,21.50
2019-02-04T13:10:41.531Z,22.70
2019-02-04T13:13:47.996Z,23.10
2019-02-04T13:16:51.627Z,23.87
2019-02-04T13:19:55.333Z,23.33
2019-02-04T13:22:59.052Z,23.53
2019-02-04T13:26:02.700Z,24.23
2019-02-04T13:29:06.434Z,21.33
2019-02-04T13:32:10.540Z,22.07
2019-02-04T13:35:14.430Z,22.40
2019-02-04T13:38:18.149Z,22.37
2019-02-04T13:41:21.800Z,24.27
2019-02-04T13:44:25.536Z,24.83
2019-02-04T13:47:30.100Z,24.23
2019-02-04T13:50:33.856Z,23.53
2019-02-04T13:53:37.719Z,25.77
2019-02-04T13:56:41.396Z,28.00
2019-02-04T13:59:45.156Z,23.03
2019-02-04T14:02:58.869Z,25.37
2019-02-04T14:05:54.198Z,24.73
2019-02-04T14:08:57.935Z,25.50
2019-02-04T14:12:01.598Z,25.57
2019-02-04T14:15:08.377Z,26.17
2019-02-04T14:18:12.151Z,27.37
2019-02-04T14:21:15.830Z,28.23
2019-02-04T14:24:19.632Z,24.47
2019-02-04T14:27:23.390Z,27.23
2019-02-04T14:30:29.626Z,26.23
2019-02-04T14:33:33.292Z,27.70
2019-02-04T14:36:36.980Z,29.33
2019-02-04T14:39:42.958Z,31.23
2019-02-04T14:42:49.647Z,32.17
2019-02-04T14:46:17.501Z,31.43
2019-02-04T14:49:36.394Z,32.90
2019-02-04T14:53:11.852Z,32.17
2019-02-04T14:56:19.040Z,30.10
2019-02-04T14:59:27.574Z,31.67
2019-02-04T15:02:34.446Z,28.80
2019-02-04T15:05:41.210Z,28.97
2019-02-04T15:09:04.775Z,30.40
2019-02-04T15:12:11.573Z,30.73
2019-02-04T15:15:21.307Z,30.73
2019-02-04T15:18:50.895Z,29.33
2019-02-04T15:22:09.496Z,28.80
2019-02-04T15:25:28.152Z,28.87
2019-02-04T15:28:34.907Z,28.57
2019-02-04T15:32:03.006Z,29.00
2019-02-04T15:35:43.051Z,27.50
2019-02-04T15:38:55.551Z,31.40
2019-02-04T15:42:11.022Z,31.83
2019-02-04T15:45:23.973Z,42.83
2019-02-04T15:48:30.767Z,52.40
2019-02-04T15:51:37.759Z,34.33
2019-02-04T15:54:41.423Z,40.97
2019-02-04T15:57:45.175Z,36.60
2019-02-04T16:00:49.116Z,36.33
2019-02-04T16:03:54.401Z,42.27
2019-02-04T16:07:00.652Z,35.83
2019-02-04T16:10:12.774Z,36.27
2019-02-04T16:13:19.221Z,35.40
2019-02-04T16:16:24.035Z,38.33
2019-02-04T16:19:27.745Z,39.10
2019-02-04T16:22:31.540Z,35.90
2019-02-04T16:25:36.741Z,41.13
2019-02-04T16:28:42.812Z,44.87
2019-02-04T16:31:45.934Z,50.37
2019-02-04T16:34:49.632Z,43.23
2019-02-04T16:37:53.286Z,44.20
2019-02-04T16:40:57.013Z,39.93
2019-02-04T16:44:01.731Z,40.70
2019-02-04T16:47:05.466Z,44.10
2019-02-04T16:50:12.307Z,45.63
2019-02-04T16:53:16.019Z,50.70
2019-02-04T16:56:22.876Z,47.77
2019-02-04T16:59:26.641Z,43.60
2019-02-04T17:02:30.426Z,44.23
2019-02-04T17:05:36.799Z,46.67
2019-02-04T17:08:42.457Z,48.23
2019-02-04T17:11:45.887Z,48.67
2019-02-04T17:14:51.543Z,51.90
2019-02-04T17:17:58.786Z,46.53
2019-02-04T17:21:02.476Z,46.47
2019-02-04T17:24:07.835Z,40.43
2019-02-04T17:27:11.546Z,37.50
2019-02-04T17:30:21.061Z,40.00
2019-02-04T17:33:27.862Z,38.93
2019-02-04T17:36:31.525Z,38.97
2019-02-04T17:39:36.875Z,37.17
2019-02-04T17:42:44.211Z,38.87
2019-02-04T17:45:48.334Z,42.43
2019-02-04T17:48:55.662Z,44.10
2019-02-04T17:52:02.388Z,45.30
2019-02-04T17:55:22.835Z,45.33
2019-02-04T17:58:29.478Z,49.30
2019-02-04T18:01:35.663Z,47.60
2019-02-04T18:04:39.456Z,47.77
2019-02-04T18:07:49.002Z,48.77
2019-02-04T18:10:52.823Z,47.27
2019-02-04T18:13:59.701Z,49.87
2019-02-04T18:17:03.391Z,48.73
2019-02-04T18:20:11.525Z,49.37
2019-02-04T18:23:16.841Z,51.83
2019-02-04T18:26:20.666Z,49.27
2019-02-04T18:29:35.168Z,49.97
2019-02-04T18:32:37.808Z,52.23
2019-02-04T18:35:44.184Z,53.43
2019-02-04T18:38:47.995Z,51.83
2019-02-04T18:41:55.666Z,50.60
2019-02-04T18:44:59.701Z,52.43
2019-02-04T18:48:07.284Z,52.90
2019-02-04T18:51:11.412Z,49.90
2019-02-04T18:54:20.157Z,49.83
2019-02-04T18:57:23.461Z,48.37
2019-02-04T19:00:32.723Z,48.43
2019-02-04T19:03:39.441Z,48.27
2019-02-04T19:06:47.806Z,45.63
2019-02-04T19:09:50.038Z,45.07
2019-02-04T19:12:56.429Z,45.13
2019-02-04T19:16:04.352Z,47.17
2019-02-04T19:19:13.976Z,44.93
2019-02-04T19:22:23.404Z,46.57
2019-02-04T19:25:28.697Z,45.67
2019-02-04T19:28:38.137Z,45.60
2019-02-04T19:31:43.425Z,45.27
2019-02-04T19:34:54.197Z,44.80
2019-02-04T19:37:59.301Z,46.77
2019-02-04T19:41:03.026Z,45.17
2019-02-04T19:44:06.708Z,45.73
2019-02-04T19:47:10.427Z,45.70
2019-02-04T19:50:17.184Z,45.30
2019-02-04T19:53:22.797Z,47.70
2019-02-04T19:56:27.865Z,44.50
2019-02-04T19:59:31.532Z,46.80
2019-02-04T20:02:35.189Z,46.97
2019-02-04T20:05:39.183Z,46.30
2019-02-04T20:08:47.861Z,47.00
2019-02-04T20:11:52.593Z,50.03
2019-02-04T20:15:00.250Z,50.03
2019-02-04T20:18:05.530Z,49.83
2019-02-04T20:21:09.235Z,48.43
2019-02-04T20:24:16.066Z,50.60
2019-02-04T20:27:19.748Z,48.40
2019-02-04T20:30:30.920Z,44.97
2019-02-04T20:33:34.569Z,51.00
2019-02-04T20:36:38.271Z,52.50
2019-02-04T20:39:41.952Z,49.57
2019-02-04T20:42:45.603Z,48.97
2019-02-04T20:45:49.381Z,48.57
2019-02-04T20:48:53.049Z,50.10
2019-02-04T20:51:56.791Z,51.13
2019-02-04T20:55:00.622Z,51.47
2019-02-04T20:58:06.664Z,50.80
2019-02-04T21:01:10.340Z,50.37
2019-02-04T21:04:18.069Z,48.00
2019-02-04T21:07:21.715Z,54.13
2019-02-04T21:10:27.578Z,49.43
2019-02-04T21:13:33.726Z,48.73
2019-02-04T21:16:37.857Z,49.07
2019-02-04T21:19:44.126Z,51.00
2019-02-04T21:22:47.002Z,53.73
2019-02-04T21:25:50.630Z,54.53
2019-02-04T21:28:54.467Z,51.97
2019-02-04T21:31:58.293Z,49.80
2019-02-04T21:35:06.065Z,49.83
2019-02-04T21:41:09.662Z,55.40
2019-02-04T21:44:13.321Z,63.53
2019-02-04T21:47:17.065Z,64.97
2019-02-04T21:50:24.653Z,69.87
2019-02-04T21:53:28.766Z,65.67
2019-02-04T21:56:32.741Z,64.43
2019-02-04T21:59:36.459Z,61.33
2019-02-04T22:02:40.221Z,62.57
2019-02-04T22:05:43.881Z,57.27
2019-02-04T22:08:48.585Z,57.73
2019-02-04T22:11:52.320Z,58.13
2019-02-04T22:15:10.719Z,56.60
2019-02-04T22:18:14.666Z,64.13
2019-02-04T22:21:18.522Z,59.87
2019-02-04T22:24:22.253Z,55.90
2019-02-04T22:27:25.937Z,60.10
2019-02-04T22:30:31.281Z,68.47
2019-02-04T22:33:34.935Z,70.90
2019-02-04T22:36:38.681Z,63.90
2019-02-04T22:39:42.350Z,61.37
2019-02-04T22:42:46.121Z,62.13
2019-02-04T22:45:49.865Z,58.27
2019-02-04T22:48:53.519Z,54.33
2019-02-04T22:51:57.251Z,56.60
2019-02-04T22:55:00.929Z,58.60
2019-02-04T22:58:04.748Z,57.83
2019-02-04T23:01:23.616Z,58.53
2019-02-04T23:04:27.313Z,59.97
2019-02-04T23:07:30.992Z,64.13
2019-02-04T23:10:34.728Z,56.83
2019-02-04T23:13:38.401Z,55.83
2019-02-04T23:16:42.121Z,54.30
2019-02-04T23:19:45.797Z,55.23
2019-02-04T23:22:49.517Z,54.37
2019-02-04T23:25:53.287Z,54.13
2019-02-04T23:28:56.955Z,54.33
2019-02-04T23:32:00.626Z,53.03
2019-02-04T23:35:04.285Z,52.33
2019-02-04T23:38:08.219Z,54.63
2019-02-04T23:41:12.127Z,57.83
2019-02-04T23:44:16.125Z,61.20
2019-02-04T23:47:20.081Z,56.80
2019-02-04T23:50:24.027Z,55.87
2019-02-04T23:53:27.952Z,56.87
2019-02-04T23:56:31.932Z,58.13
2019-02-04T23:59:35.827Z,60.53
